sensor_id;sensor_type;location;lat;lon;timestamp;P1;durP1;ratioP1;P2;durP2;ratioP2
73084;SDS011;62974;49.460;10.892;2023-05-16T00:00:34;5.90;;;4.00;;
73084;SDS011;62974;49.460;10.892;2023-05-16T00:03:03;5.38;;;3.53;;
73084;SDS011;62974;49.460;10.892;2023-05-16T00:08:03;4.97;;;3.42;;
73084;SDS011;62974;49.460;10.892;2023-05-16T00:10:30;5.50;;;3.85;;
73084;SDS011;62974;49.460;10.892;2023-05-16T00:12:58;6.32;;;3.78;;
73084;SDS011;62974;49.460;10.892;2023-05-16T00:15:27;6.30;;;4.05;;
73084;SDS011;62974;49.460;10.892;2023-05-16T00:17:55;7.75;;;4.10;;
73084;SDS011;62974;49.460;10.892;2023-05-16T00:20:24;5.75;;;3.80;;
73084;SDS011;62974;49.460;10.892;2023-05-16T00:22:55;9.40;;;4.28;;
73084;SDS011;62974;49.460;10.892;2023-05-16T00:25:26;6.45;;;3.95;;
73084;SDS011;62974;49.460;10.892;2023-05-16T00:27:53;7.45;;;4.45;;
73084;SDS011;62974;49.460;10.892;2023-05-16T00:30:21;5.82;;;4.43;;
73084;SDS011;62974;49.460;10.892;2023-05-16T00:32:49;6.95;;;4.20;;
73084;SDS011;62974;49.460;10.892;2023-05-16T00:35:16;8.30;;;4.85;;
73084;SDS011;62974;49.460;10.892;2023-05-16T00:37:44;10.05;;;4.95;;
73084;SDS011;62974;49.460;10.892;2023-05-16T00:40:15;8.07;;;4.78;;
73084;SDS011;62974;49.460;10.892;2023-05-16T00:42:45;8.05;;;4.90;;
73084;SDS011;62974;49.460;10.892;2023-05-16T00:45:14;11.10;;;5.32;;
73084;SDS011;62974;49.460;10.892;2023-05-16T00:47:41;9.80;;;5.80;;
73084;SDS011;62974;49.460;10.892;2023-05-16T00:50:09;9.32;;;5.85;;
73084;SDS011;62974;49.460;10.892;2023-05-16T00:52:37;7.78;;;5.10;;
73084;SDS011;62974;49.460;10.892;2023-05-16T00:55:05;8.65;;;5.18;;
73084;SDS011;62974;49.460;10.892;2023-05-16T00:57:37;8.93;;;5.10;;
73084;SDS011;62974;49.460;10.892;2023-05-16T01:00:05;8.13;;;4.85;;
73084;SDS011;62974;49.460;10.892;2023-05-16T01:02:34;7.45;;;4.70;;
73084;SDS011;62974;49.460;10.892;2023-05-16T01:05:03;7.80;;;5.30;;
73084;SDS011;62974;49.460;10.892;2023-05-16T01:07:32;7.15;;;4.80;;
73084;SDS011;62974;49.460;10.892;2023-05-16T01:09:59;7.28;;;4.63;;
73084;SDS011;62974;49.460;10.892;2023-05-16T01:12:29;7.45;;;4.72;;
73084;SDS011;62974;49.460;10.892;2023-05-16T01:17:35;10.48;;;5.00;;
73084;SDS011;62974;49.460;10.892;2023-05-16T01:20:12;8.40;;;4.82;;
73084;SDS011;62974;49.460;10.892;2023-05-16T01:22:51;6.97;;;4.40;;
73084;SDS011;62974;49.460;10.892;2023-05-16T01:25:31;9.07;;;5.00;;
73084;SDS011;62974;49.460;10.892;2023-05-16T01:28:13;8.68;;;4.43;;
73084;SDS011;62974;49.460;10.892;2023-05-16T01:30:43;8.27;;;4.35;;
73084;SDS011;62974;49.460;10.892;2023-05-16T01:33:10;7.28;;;4.07;;
73084;SDS011;62974;49.460;10.892;2023-05-16T01:35:39;10.27;;;4.38;;
73084;SDS011;62974;49.460;10.892;2023-05-16T01:38:15;7.80;;;5.40;;
73084;SDS011;62974;49.460;10.892;2023-05-16T01:40:52;7.38;;;4.50;;
73084;SDS011;62974;49.460;10.892;2023-05-16T01:43:26;7.07;;;4.07;;
73084;SDS011;62974;49.460;10.892;2023-05-16T01:46:02;6.60;;;4.38;;
73084;SDS011;62974;49.460;10.892;2023-05-16T01:48:34;8.45;;;4.28;;
73084;SDS011;62974;49.460;10.892;2023-05-16T01:51:05;8.02;;;4.60;;
73084;SDS011;62974;49.460;10.892;2023-05-16T01:53:35;9.50;;;4.68;;
73084;SDS011;62974;49.460;10.892;2023-05-16T01:56:06;7.75;;;4.40;;
73084;SDS011;62974;49.460;10.892;2023-05-16T01:58:38;9.65;;;4.43;;
73084;SDS011;62974;49.460;10.892;2023-05-16T02:01:08;7.57;;;4.25;;
73084;SDS011;62974;49.460;10.892;2023-05-16T02:03:36;8.82;;;4.50;;
73084;SDS011;62974;49.460;10.892;2023-05-16T02:06:04;9.35;;;4.43;;
73084;SDS011;62974;49.460;10.892;2023-05-16T02:08:32;7.75;;;4.72;;
73084;SDS011;62974;49.460;10.892;2023-05-16T02:10:59;7.68;;;4.32;;
73084;SDS011;62974;49.460;10.892;2023-05-16T02:13:27;7.78;;;4.57;;
73084;SDS011;62974;49.460;10.892;2023-05-16T02:15:55;7.95;;;4.50;;
73084;SDS011;62974;49.460;10.892;2023-05-16T02:18:23;6.60;;;4.22;;
73084;SDS011;62974;49.460;10.892;2023-05-16T02:20:51;6.50;;;4.38;;
73084;SDS011;62974;49.460;10.892;2023-05-16T02:23:18;8.77;;;4.88;;
73084;SDS011;62974;49.460;10.892;2023-05-16T02:25:46;6.70;;;5.03;;
73084;SDS011;62974;49.460;10.892;2023-05-16T02:28:14;8.80;;;4.82;;
73084;SDS011;62974;49.460;10.892;2023-05-16T02:30:41;7.38;;;4.85;;
73084;SDS011;62974;49.460;10.892;2023-05-16T02:33:10;8.07;;;4.57;;
73084;SDS011;62974;49.460;10.892;2023-05-16T02:35:38;10.27;;;5.10;;
73084;SDS011;62974;49.460;10.892;2023-05-16T02:38:05;8.07;;;4.72;;
73084;SDS011;62974;49.460;10.892;2023-05-16T02:40:33;8.07;;;4.53;;
73084;SDS011;62974;49.460;10.892;2023-05-16T02:43:00;10.25;;;4.95;;
73084;SDS011;62974;49.460;10.892;2023-05-16T02:45:28;8.38;;;4.82;;
73084;SDS011;62974;49.460;10.892;2023-05-16T02:47:55;8.73;;;5.32;;
73084;SDS011;62974;49.460;10.892;2023-05-16T02:50:24;6.97;;;5.10;;
73084;SDS011;62974;49.460;10.892;2023-05-16T02:52:51;7.22;;;4.30;;
73084;SDS011;62974;49.460;10.892;2023-05-16T02:55:19;7.22;;;4.60;;
73084;SDS011;62974;49.460;10.892;2023-05-16T02:57:48;8.18;;;4.60;;
73084;SDS011;62974;49.460;10.892;2023-05-16T03:00:15;7.93;;;4.70;;
73084;SDS011;62974;49.460;10.892;2023-05-16T03:05:12;6.82;;;3.83;;
73084;SDS011;62974;49.460;10.892;2023-05-16T03:07:41;6.95;;;4.43;;
73084;SDS011;62974;49.460;10.892;2023-05-16T03:10:08;7.95;;;5.03;;
73084;SDS011;62974;49.460;10.892;2023-05-16T03:12:36;6.60;;;4.25;;
73084;SDS011;62974;49.460;10.892;2023-05-16T03:15:04;8.80;;;4.88;;
73084;SDS011;62974;49.460;10.892;2023-05-16T03:17:34;8.95;;;4.90;;
73084;SDS011;62974;49.460;10.892;2023-05-16T03:20:01;9.55;;;5.28;;
73084;SDS011;62974;49.460;10.892;2023-05-16T03:22:30;10.18;;;5.05;;
73084;SDS011;62974;49.460;10.892;2023-05-16T03:24:59;8.32;;;4.72;;
73084;SDS011;62974;49.460;10.892;2023-05-16T03:27:26;8.40;;;4.50;;
73084;SDS011;62974;49.460;10.892;2023-05-16T03:29:54;8.25;;;5.13;;
73084;SDS011;62974;49.460;10.892;2023-05-16T03:32:21;8.50;;;4.78;;
73084;SDS011;62974;49.460;10.892;2023-05-16T03:34:49;8.15;;;5.03;;
73084;SDS011;62974;49.460;10.892;2023-05-16T03:37:17;8.43;;;5.10;;
73084;SDS011;62974;49.460;10.892;2023-05-16T03:39:44;10.55;;;5.18;;
73084;SDS011;62974;49.460;10.892;2023-05-16T03:42:13;7.47;;;4.35;;
73084;SDS011;62974;49.460;10.892;2023-05-16T03:44:40;7.40;;;4.43;;
73084;SDS011;62974;49.460;10.892;2023-05-16T03:47:08;7.60;;;4.70;;
73084;SDS011;62974;49.460;10.892;2023-05-16T03:49:35;8.00;;;4.50;;
73084;SDS011;62974;49.460;10.892;2023-05-16T03:52:03;7.15;;;4.40;;
73084;SDS011;62974;49.460;10.892;2023-05-16T03:54:31;7.13;;;4.63;;
73084;SDS011;62974;49.460;10.892;2023-05-16T03:56:59;6.93;;;4.70;;
73084;SDS011;62974;49.460;10.892;2023-05-16T03:59:27;8.57;;;4.07;;
73084;SDS011;62974;49.460;10.892;2023-05-16T04:01:55;8.02;;;5.18;;
73084;SDS011;62974;49.460;10.892;2023-05-16T04:04:23;8.18;;;5.15;;
73084;SDS011;62974;49.460;10.892;2023-05-16T04:06:51;8.90;;;5.63;;
73084;SDS011;62974;49.460;10.892;2023-05-16T04:09:18;7.55;;;4.85;;
73084;SDS011;62974;49.460;10.892;2023-05-16T04:11:46;7.00;;;4.18;;
73084;SDS011;62974;49.460;10.892;2023-05-16T04:14:13;7.00;;;4.68;;
73084;SDS011;62974;49.460;10.892;2023-05-16T04:16:42;8.82;;;5.60;;
73084;SDS011;62974;49.460;10.892;2023-05-16T04:19:10;8.77;;;5.15;;
73084;SDS011;62974;49.460;10.892;2023-05-16T04:21:37;8.25;;;5.10;;
73084;SDS011;62974;49.460;10.892;2023-05-16T04:24:05;8.40;;;5.38;;
73084;SDS011;62974;49.460;10.892;2023-05-16T04:26:33;11.80;;;4.75;;
73084;SDS011;62974;49.460;10.892;2023-05-16T04:29:02;10.32;;;5.10;;
73084;SDS011;62974;49.460;10.892;2023-05-16T04:31:30;10.18;;;4.78;;
73084;SDS011;62974;49.460;10.892;2023-05-16T04:33:59;8.25;;;4.55;;
73084;SDS011;62974;49.460;10.892;2023-05-16T04:36:26;9.55;;;5.30;;
73084;SDS011;62974;49.460;10.892;2023-05-16T04:38:55;10.20;;;5.47;;
73084;SDS011;62974;49.460;10.892;2023-05-16T04:41:22;7.30;;;4.93;;
73084;SDS011;62974;49.460;10.892;2023-05-16T04:43:50;9.00;;;5.25;;
73084;SDS011;62974;49.460;10.892;2023-05-16T04:46:18;8.95;;;4.95;;
73084;SDS011;62974;49.460;10.892;2023-05-16T04:48:47;8.68;;;5.18;;
73084;SDS011;62974;49.460;10.892;2023-05-16T04:51:15;8.35;;;5.53;;
73084;SDS011;62974;49.460;10.892;2023-05-16T04:53:43;11.68;;;6.05;;
73084;SDS011;62974;49.460;10.892;2023-05-16T04:56:10;12.55;;;6.93;;
73084;SDS011;62974;49.460;10.892;2023-05-16T04:58:38;10.98;;;6.68;;
73084;SDS011;62974;49.460;10.892;2023-05-16T05:01:08;11.13;;;6.22;;
73084;SDS011;62974;49.460;10.892;2023-05-16T05:03:35;11.10;;;6.57;;
73084;SDS011;62974;49.460;10.892;2023-05-16T05:06:03;11.93;;;6.72;;
73084;SDS011;62974;49.460;10.892;2023-05-16T05:08:32;10.70;;;6.57;;
73084;SDS011;62974;49.460;10.892;2023-05-16T05:10:59;13.10;;;7.40;;
73084;SDS011;62974;49.460;10.892;2023-05-16T05:13:28;12.07;;;7.07;;
73084;SDS011;62974;49.460;10.892;2023-05-16T05:15:55;12.80;;;7.43;;
73084;SDS011;62974;49.460;10.892;2023-05-16T05:18:23;13.77;;;7.43;;
73084;SDS011;62974;49.460;10.892;2023-05-16T05:20:50;14.10;;;6.30;;
73084;SDS011;62974;49.460;10.892;2023-05-16T05:23:18;10.52;;;6.30;;
73084;SDS011;62974;49.460;10.892;2023-05-16T05:25:47;12.02;;;7.03;;
73084;SDS011;62974;49.460;10.892;2023-05-16T05:28:15;12.23;;;6.88;;
73084;SDS011;62974;49.460;10.892;2023-05-16T05:30:43;11.35;;;7.50;;
73084;SDS011;62974;49.460;10.892;2023-05-16T05:35:40;15.32;;;7.20;;
73084;SDS011;62974;49.460;10.892;2023-05-16T05:38:08;11.98;;;6.97;;
73084;SDS011;62974;49.460;10.892;2023-05-16T05:40:35;15.90;;;7.80;;
73084;SDS011;62974;49.460;10.892;2023-05-16T05:43:04;12.40;;;6.93;;
73084;SDS011;62974;49.460;10.892;2023-05-16T05:45:32;10.48;;;7.20;;
73084;SDS011;62974;49.460;10.892;2023-05-16T05:47:59;10.85;;;6.38;;
73084;SDS011;62974;49.460;10.892;2023-05-16T05:50:27;13.63;;;7.63;;
73084;SDS011;62974;49.460;10.892;2023-05-16T05:52:54;12.25;;;5.63;;
73084;SDS011;62974;49.460;10.892;2023-05-16T05:55:22;12.30;;;6.70;;
73084;SDS011;62974;49.460;10.892;2023-05-16T05:57:50;11.63;;;6.32;;
73084;SDS011;62974;49.460;10.892;2023-05-16T06:00:19;11.60;;;7.13;;
73084;SDS011;62974;49.460;10.892;2023-05-16T06:02:47;12.00;;;6.55;;
73084;SDS011;62974;49.460;10.892;2023-05-16T06:05:15;12.25;;;6.78;;
73084;SDS011;62974;49.460;10.892;2023-05-16T06:07:42;10.50;;;6.25;;
73084;SDS011;62974;49.460;10.892;2023-05-16T06:10:10;12.88;;;7.13;;
73084;SDS011;62974;49.460;10.892;2023-05-16T06:12:37;13.68;;;7.70;;
73084;SDS011;62974;49.460;10.892;2023-05-16T06:15:05;12.30;;;6.85;;
73084;SDS011;62974;49.460;10.892;2023-05-16T06:17:35;11.15;;;6.63;;
73084;SDS011;62974;49.460;10.892;2023-05-16T06:20:02;11.63;;;6.05;;
73084;SDS011;62974;49.460;10.892;2023-05-16T06:22:30;11.73;;;5.68;;
73084;SDS011;62974;49.460;10.892;2023-05-16T06:24:58;10.82;;;6.53;;
73084;SDS011;62974;49.460;10.892;2023-05-16T06:27:25;15.15;;;6.72;;
73084;SDS011;62974;49.460;10.892;2023-05-16T06:29:54;10.60;;;6.72;;
73084;SDS011;62974;49.460;10.892;2023-05-16T06:32:21;14.60;;;8.45;;
73084;SDS011;62974;49.460;10.892;2023-05-16T06:34:50;13.10;;;8.27;;
73084;SDS011;62974;49.460;10.892;2023-05-16T06:37:18;13.60;;;7.28;;
73084;SDS011;62974;49.460;10.892;2023-05-16T06:39:45;12.32;;;7.47;;
73084;SDS011;62974;49.460;10.892;2023-05-16T06:42:13;12.80;;;7.47;;
73084;SDS011;62974;49.460;10.892;2023-05-16T06:44:41;14.93;;;8.65;;
73084;SDS011;62974;49.460;10.892;2023-05-16T06:47:08;11.85;;;8.15;;
73084;SDS011;62974;49.460;10.892;2023-05-16T06:49:36;15.07;;;7.55;;
73084;SDS011;62974;49.460;10.892;2023-05-16T06:52:05;14.50;;;7.85;;
73084;SDS011;62974;49.460;10.892;2023-05-16T06:54:32;10.45;;;6.13;;
73084;SDS011;62974;49.460;10.892;2023-05-16T06:57:00;11.80;;;6.80;;
73084;SDS011;62974;49.460;10.892;2023-05-16T06:59:29;10.32;;;5.72;;
73084;SDS011;62974;49.460;10.892;2023-05-16T07:01:56;11.07;;;7.32;;
73084;SDS011;62974;49.460;10.892;2023-05-16T07:04:24;11.07;;;7.20;;
73084;SDS011;62974;49.460;10.892;2023-05-16T07:06:51;10.05;;;6.57;;
73084;SDS011;62974;49.460;10.892;2023-05-16T07:09:20;16.02;;;6.88;;
73084;SDS011;62974;49.460;10.892;2023-05-16T07:11:48;10.70;;;6.40;;
73084;SDS011;62974;49.460;10.892;2023-05-16T07:14:16;10.57;;;6.78;;
73084;SDS011;62974;49.460;10.892;2023-05-16T07:16:43;8.32;;;5.40;;
73084;SDS011;62974;49.460;10.892;2023-05-16T07:19:11;10.27;;;7.32;;
73084;SDS011;62974;49.460;10.892;2023-05-16T07:21:38;11.10;;;6.10;;
73084;SDS011;62974;49.460;10.892;2023-05-16T07:24:06;10.07;;;5.88;;
73084;SDS011;62974;49.460;10.892;2023-05-16T07:26:35;12.02;;;7.72;;
73084;SDS011;62974;49.460;10.892;2023-05-16T07:29:02;12.80;;;6.45;;
73084;SDS011;62974;49.460;10.892;2023-05-16T07:31:30;11.07;;;6.97;;
73084;SDS011;62974;49.460;10.892;2023-05-16T07:33:58;13.57;;;8.18;;
73084;SDS011;62974;49.460;10.892;2023-05-16T07:36:26;13.52;;;8.32;;
73084;SDS011;62974;49.460;10.892;2023-05-16T07:38:56;13.80;;;7.90;;
73084;SDS011;62974;49.460;10.892;2023-05-16T07:41:24;10.25;;;7.22;;
73084;SDS011;62974;49.460;10.892;2023-05-16T07:43:53;12.50;;;7.32;;
73084;SDS011;62974;49.460;10.892;2023-05-16T07:46:21;11.98;;;8.05;;
73084;SDS011;62974;49.460;10.892;2023-05-16T07:48:49;13.65;;;7.68;;
73084;SDS011;62974;49.460;10.892;2023-05-16T07:51:16;12.95;;;6.53;;
73084;SDS011;62974;49.460;10.892;2023-05-16T07:53:44;15.00;;;9.90;;
73084;SDS011;62974;49.460;10.892;2023-05-16T07:56:11;14.07;;;9.02;;
73084;SDS011;62974;49.460;10.892;2023-05-16T07:58:39;12.20;;;7.28;;
73084;SDS011;62974;49.460;10.892;2023-05-16T08:01:08;10.05;;;6.15;;
73084;SDS011;62974;49.460;10.892;2023-05-16T08:03:37;10.98;;;6.88;;
73084;SDS011;62974;49.460;10.892;2023-05-16T08:06:04;13.52;;;7.55;;
73084;SDS011;62974;49.460;10.892;2023-05-16T08:08:32;13.35;;;7.63;;
73084;SDS011;62974;49.460;10.892;2023-05-16T08:11:00;12.48;;;7.28;;
73084;SDS011;62974;49.460;10.892;2023-05-16T08:13:28;14.02;;;7.88;;
73084;SDS011;62974;49.460;10.892;2023-05-16T08:18:25;10.02;;;6.70;;
73084;SDS011;62974;49.460;10.892;2023-05-16T08:20:53;10.25;;;6.20;;
73084;SDS011;62974;49.460;10.892;2023-05-16T08:23:20;10.93;;;7.53;;
73084;SDS011;62974;49.460;10.892;2023-05-16T08:25:48;10.90;;;6.93;;
73084;SDS011;62974;49.460;10.892;2023-05-16T08:28:15;10.35;;;5.47;;
73084;SDS011;62974;49.460;10.892;2023-05-16T08:30:43;11.20;;;7.10;;
73084;SDS011;62974;49.460;10.892;2023-05-16T08:33:13;9.00;;;6.03;;
73084;SDS011;62974;49.460;10.892;2023-05-16T08:35:42;10.63;;;6.32;;
73084;SDS011;62974;49.460;10.892;2023-05-16T08:38:11;12.75;;;8.30;;
73084;SDS011;62974;49.460;10.892;2023-05-16T08:40:39;10.68;;;6.38;;
73084;SDS011;62974;49.460;10.892;2023-05-16T08:43:07;12.35;;;9.18;;
73084;SDS011;62974;49.460;10.892;2023-05-16T08:45:35;9.35;;;6.35;;
73084;SDS011;62974;49.460;10.892;2023-05-16T08:48:03;14.57;;;7.28;;
73084;SDS011;62974;49.460;10.892;2023-05-16T08:50:35;13.05;;;6.00;;
73084;SDS011;62974;49.460;10.892;2023-05-16T08:53:05;12.18;;;7.85;;
73084;SDS011;62974;49.460;10.892;2023-05-16T08:55:35;15.02;;;9.15;;
73084;SDS011;62974;49.460;10.892;2023-05-16T08:58:03;12.80;;;6.72;;
73084;SDS011;62974;49.460;10.892;2023-05-16T09:00:31;12.20;;;8.18;;
73084;SDS011;62974;49.460;10.892;2023-05-16T09:02:58;12.45;;;7.10;;
73084;SDS011;62974;49.460;10.892;2023-05-16T09:07:56;12.05;;;7.63;;
73084;SDS011;62974;49.460;10.892;2023-05-16T09:10:25;15.50;;;8.82;;
73084;SDS011;62974;49.460;10.892;2023-05-16T09:12:52;14.32;;;8.98;;
73084;SDS011;62974;49.460;10.892;2023-05-16T09:15:20;14.75;;;9.75;;
73084;SDS011;62974;49.460;10.892;2023-05-16T09:17:48;13.10;;;8.40;;
73084;SDS011;62974;49.460;10.892;2023-05-16T09:20:16;11.15;;;6.25;;
73084;SDS011;62974;49.460;10.892;2023-05-16T09:22:51;11.90;;;7.18;;
73084;SDS011;62974;49.460;10.892;2023-05-16T09:25:20;12.80;;;8.00;;
73084;SDS011;62974;49.460;10.892;2023-05-16T09:27:53;15.77;;;9.57;;
73084;SDS011;62974;49.460;10.892;2023-05-16T09:30:21;16.00;;;9.23;;
73084;SDS011;62974;49.460;10.892;2023-05-16T09:32:50;13.45;;;8.38;;
73084;SDS011;62974;49.460;10.892;2023-05-16T09:35:18;11.90;;;6.20;;
73084;SDS011;62974;49.460;10.892;2023-05-16T09:38:11;15.88;;;9.98;;
73084;SDS011;62974;49.460;10.892;2023-05-16T09:40:40;15.98;;;10.07;;
73084;SDS011;62974;49.460;10.892;2023-05-16T09:43:10;17.50;;;11.07;;
73084;SDS011;62974;49.460;10.892;2023-05-16T09:45:44;15.50;;;8.60;;
73084;SDS011;62974;49.460;10.892;2023-05-16T09:48:13;15.30;;;9.20;;
73084;SDS011;62974;49.460;10.892;2023-05-16T09:50:45;13.10;;;7.97;;
73084;SDS011;62974;49.460;10.892;2023-05-16T09:53:16;15.65;;;8.70;;
73084;SDS011;62974;49.460;10.892;2023-05-16T09:55:44;14.48;;;7.85;;
73084;SDS011;62974;49.460;10.892;2023-05-16T09:58:16;13.55;;;8.13;;
73084;SDS011;62974;49.460;10.892;2023-05-16T10:00:44;15.82;;;10.70;;
73084;SDS011;62974;49.460;10.892;2023-05-16T10:03:12;12.60;;;7.68;;
73084;SDS011;62974;49.460;10.892;2023-05-16T10:05:41;12.73;;;6.80;;
73084;SDS011;62974;49.460;10.892;2023-05-16T10:08:09;14.45;;;6.78;;
73084;SDS011;62974;49.460;10.892;2023-05-16T10:10:39;12.65;;;7.38;;
73084;SDS011;62974;49.460;10.892;2023-05-16T10:13:07;12.75;;;8.98;;
73084;SDS011;62974;49.460;10.892;2023-05-16T10:15:39;12.57;;;6.55;;
73084;SDS011;62974;49.460;10.892;2023-05-16T10:18:07;11.15;;;7.28;;
73084;SDS011;62974;49.460;10.892;2023-05-16T10:20:38;13.02;;;6.63;;
73084;SDS011;62974;49.460;10.892;2023-05-16T10:23:09;13.80;;;7.40;;
73084;SDS011;62974;49.460;10.892;2023-05-16T10:25:43;11.60;;;6.35;;
73084;SDS011;62974;49.460;10.892;2023-05-16T10:28:12;12.95;;;8.32;;
73084;SDS011;62974;49.460;10.892;2023-05-16T10:30:43;11.35;;;5.72;;
73084;SDS011;62974;49.460;10.892;2023-05-16T10:33:13;14.70;;;7.20;;
73084;SDS011;62974;49.460;10.892;2023-05-16T10:35:42;11.68;;;6.50;;
73084;SDS011;62974;49.460;10.892;2023-05-16T10:38:11;11.98;;;5.95;;
73084;SDS011;62974;49.460;10.892;2023-05-16T10:40:42;8.55;;;5.82;;
73084;SDS011;62974;49.460;10.892;2023-05-16T10:43:13;9.52;;;5.63;;
73084;SDS011;62974;49.460;10.892;2023-05-16T10:45:54;10.57;;;6.32;;
73084;SDS011;62974;49.460;10.892;2023-05-16T10:48:29;10.50;;;5.57;;
73084;SDS011;62974;49.460;10.892;2023-05-16T10:50:57;7.95;;;4.57;;
73084;SDS011;62974;49.460;10.892;2023-05-16T10:53:28;8.25;;;4.63;;
73084;SDS011;62974;49.460;10.892;2023-05-16T10:56:07;7.63;;;4.47;;
73084;SDS011;62974;49.460;10.892;2023-05-16T10:58:43;8.63;;;4.90;;
73084;SDS011;62974;49.460;10.892;2023-05-16T11:01:14;7.90;;;5.68;;
73084;SDS011;62974;49.460;10.892;2023-05-16T11:03:59;9.27;;;5.68;;
73084;SDS011;62974;49.460;10.892;2023-05-16T11:06:28;9.10;;;4.45;;
73084;SDS011;62974;49.460;10.892;2023-05-16T11:09:03;7.85;;;5.13;;
73084;SDS011;62974;49.460;10.892;2023-05-16T11:11:38;6.78;;;4.03;;
73084;SDS011;62974;49.460;10.892;2023-05-16T11:14:07;8.18;;;4.07;;
73084;SDS011;62974;49.460;10.892;2023-05-16T11:16:36;9.05;;;3.92;;
73084;SDS011;62974;49.460;10.892;2023-05-16T11:19:05;7.75;;;4.20;;
73084;SDS011;62974;49.460;10.892;2023-05-16T11:24:54;9.27;;;4.80;;
73084;SDS011;62974;49.460;10.892;2023-05-16T11:27:25;7.35;;;4.00;;
73084;SDS011;62974;49.460;10.892;2023-05-16T11:29:56;4.30;;;2.70;;
73084;SDS011;62974;49.460;10.892;2023-05-16T11:34:59;6.22;;;3.63;;
73084;SDS011;62974;49.460;10.892;2023-05-16T11:37:28;5.32;;;2.67;;
73084;SDS011;62974;49.460;10.892;2023-05-16T11:39:59;8.65;;;4.60;;
73084;SDS011;62974;49.460;10.892;2023-05-16T11:42:28;5.78;;;3.42;;
73084;SDS011;62974;49.460;10.892;2023-05-16T11:45:05;6.63;;;3.78;;
73084;SDS011;62974;49.460;10.892;2023-05-16T11:47:36;8.45;;;4.15;;
73084;SDS011;62974;49.460;10.892;2023-05-16T11:50:05;5.75;;;2.92;;
73084;SDS011;62974;49.460;10.892;2023-05-16T11:52:37;7.97;;;4.35;;
73084;SDS011;62974;49.460;10.892;2023-05-16T11:55:06;8.02;;;5.70;;
73084;SDS011;62974;49.460;10.892;2023-05-16T11:57:36;6.40;;;3.95;;
73084;SDS011;62974;49.460;10.892;2023-05-16T12:00:09;5.53;;;2.40;;
73084;SDS011;62974;49.460;10.892;2023-05-16T12:02:42;9.30;;;4.93;;
73084;SDS011;62974;49.460;10.892;2023-05-16T12:05:13;5.72;;;3.72;;
73084;SDS011;62974;49.460;10.892;2023-05-16T12:07:42;7.85;;;3.58;;
73084;SDS011;62974;49.460;10.892;2023-05-16T12:10:10;8.27;;;4.03;;
73084;SDS011;62974;49.460;10.892;2023-05-16T12:12:40;8.93;;;4.63;;
73084;SDS011;62974;49.460;10.892;2023-05-16T12:15:10;8.18;;;4.25;;
73084;SDS011;62974;49.460;10.892;2023-05-16T12:17:39;6.45;;;3.92;;
73084;SDS011;62974;49.460;10.892;2023-05-16T12:20:09;8.70;;;4.82;;
73084;SDS011;62974;49.460;10.892;2023-05-16T12:22:39;7.65;;;4.68;;
73084;SDS011;62974;49.460;10.892;2023-05-16T12:25:24;7.50;;;4.68;;
73084;SDS011;62974;49.460;10.892;2023-05-16T12:27:53;8.38;;;5.07;;
73084;SDS011;62974;49.460;10.892;2023-05-16T12:30:21;7.00;;;3.72;;
73084;SDS011;62974;49.460;10.892;2023-05-16T12:32:56;6.00;;;3.03;;
73084;SDS011;62974;49.460;10.892;2023-05-16T12:35:28;5.90;;;3.05;;
73084;SDS011;62974;49.460;10.892;2023-05-16T12:37:57;5.82;;;3.45;;
73084;SDS011;62974;49.460;10.892;2023-05-16T12:40:26;7.25;;;4.72;;
73084;SDS011;62974;49.460;10.892;2023-05-16T12:42:55;6.72;;;5.10;;
73084;SDS011;62974;49.460;10.892;2023-05-16T12:45:23;8.52;;;4.88;;
73084;SDS011;62974;49.460;10.892;2023-05-16T12:47:53;9.13;;;3.90;;
73084;SDS011;62974;49.460;10.892;2023-05-16T12:50:21;7.20;;;4.38;;
73084;SDS011;62974;49.460;10.892;2023-05-16T12:52:51;6.85;;;3.50;;
73084;SDS011;62974;49.460;10.892;2023-05-16T12:55:20;6.72;;;4.28;;
73084;SDS011;62974;49.460;10.892;2023-05-16T12:57:48;7.75;;;3.53;;
73084;SDS011;62974;49.460;10.892;2023-05-16T13:00:17;6.85;;;4.40;;
73084;SDS011;62974;49.460;10.892;2023-05-16T13:02:46;3.85;;;2.10;;
73084;SDS011;62974;49.460;10.892;2023-05-16T13:05:14;5.03;;;3.00;;
73084;SDS011;62974;49.460;10.892;2023-05-16T13:07:43;5.82;;;3.63;;
73084;SDS011;62974;49.460;10.892;2023-05-16T13:10:12;4.75;;;2.80;;
73084;SDS011;62974;49.460;10.892;2023-05-16T13:12:40;5.78;;;3.25;;
73084;SDS011;62974;49.460;10.892;2023-05-16T13:15:08;5.40;;;3.22;;
73084;SDS011;62974;49.460;10.892;2023-05-16T13:17:37;6.40;;;3.47;;
73084;SDS011;62974;49.460;10.892;2023-05-16T13:20:06;6.22;;;3.45;;
73084;SDS011;62974;49.460;10.892;2023-05-16T13:22:35;6.45;;;3.35;;
73084;SDS011;62974;49.460;10.892;2023-05-16T13:25:03;5.05;;;3.20;;
73084;SDS011;62974;49.460;10.892;2023-05-16T13:27:33;4.20;;;2.58;;
73084;SDS011;62974;49.460;10.892;2023-05-16T13:30:01;7.28;;;3.00;;
73084;SDS011;62974;49.460;10.892;2023-05-16T13:32:29;5.60;;;3.22;;
73084;SDS011;62974;49.460;10.892;2023-05-16T13:34:57;3.70;;;2.33;;
73084;SDS011;62974;49.460;10.892;2023-05-16T13:37:24;6.72;;;3.40;;
73084;SDS011;62974;49.460;10.892;2023-05-16T13:39:52;5.20;;;2.60;;
73084;SDS011;62974;49.460;10.892;2023-05-16T13:42:21;4.88;;;2.60;;
73084;SDS011;62974;49.460;10.892;2023-05-16T13:44:50;4.90;;;3.05;;
73084;SDS011;62974;49.460;10.892;2023-05-16T13:47:17;4.63;;;2.95;;
73084;SDS011;62974;49.460;10.892;2023-05-16T13:49:45;4.85;;;2.63;;
73084;SDS011;62974;49.460;10.892;2023-05-16T13:52:14;4.70;;;3.30;;
73084;SDS011;62974;49.460;10.892;2023-05-16T13:54:41;4.78;;;2.97;;
73084;SDS011;62974;49.460;10.892;2023-05-16T13:57:09;5.13;;;2.15;;
73084;SDS011;62974;49.460;10.892;2023-05-16T13:59:36;4.07;;;2.25;;
73084;SDS011;62974;49.460;10.892;2023-05-16T14:02:25;4.05;;;2.67;;
73084;SDS011;62974;49.460;10.892;2023-05-16T14:04:53;5.18;;;3.25;;
73084;SDS011;62974;49.460;10.892;2023-05-16T14:07:20;3.15;;;2.28;;
73084;SDS011;62974;49.460;10.892;2023-05-16T14:09:48;3.45;;;1.95;;
73084;SDS011;62974;49.460;10.892;2023-05-16T14:12:15;3.35;;;2.42;;
73084;SDS011;62974;49.460;10.892;2023-05-16T14:14:43;4.82;;;2.63;;
73084;SDS011;62974;49.460;10.892;2023-05-16T14:17:10;4.78;;;2.55;;
73084;SDS011;62974;49.460;10.892;2023-05-16T14:19:39;2.90;;;1.55;;
73084;SDS011;62974;49.460;10.892;2023-05-16T14:22:07;3.53;;;1.80;;
73084;SDS011;62974;49.460;10.892;2023-05-16T14:24:34;4.93;;;2.20;;
73084;SDS011;62974;49.460;10.892;2023-05-16T14:27:02;3.10;;;1.70;;
73084;SDS011;62974;49.460;10.892;2023-05-16T14:29:30;3.90;;;1.70;;
73084;SDS011;62974;49.460;10.892;2023-05-16T14:31:57;3.17;;;1.90;;
73084;SDS011;62974;49.460;10.892;2023-05-16T14:34:25;2.95;;;1.42;;
73084;SDS011;62974;49.460;10.892;2023-05-16T14:36:54;4.82;;;2.47;;
73084;SDS011;62974;49.460;10.892;2023-05-16T14:39:21;2.35;;;1.60;;
73084;SDS011;62974;49.460;10.892;2023-05-16T14:41:49;2.30;;;1.52;;
73084;SDS011;62974;49.460;10.892;2023-05-16T14:44:16;3.72;;;1.98;;
73084;SDS011;62974;49.460;10.892;2023-05-16T14:46:45;3.38;;;2.05;;
73084;SDS011;62974;49.460;10.892;2023-05-16T14:49:12;3.67;;;2.05;;
73084;SDS011;62974;49.460;10.892;2023-05-16T14:51:40;1.88;;;1.10;;
73084;SDS011;62974;49.460;10.892;2023-05-16T14:54:11;3.53;;;1.88;;
73084;SDS011;62974;49.460;10.892;2023-05-16T14:56:39;2.88;;;1.80;;
73084;SDS011;62974;49.460;10.892;2023-05-16T14:59:07;4.57;;;2.05;;